Time;durP1;ratioP1;P1;durP2;ratioP2;P2;SDS_P1;SDS_P2;PMS_P1;PMS_P2;Temp;Humidity;BMP_temperature;BMP_pressure;BME280_temperature;BME280_humidity;BME280_pressure;Samples;Min_cycle;Max_cycle;Signal;HPM_P1;HPM_P2
2023/01/15 00:00:20;;;;;;;12.63;2.47;;;5.70;99.90;;;;;;5009484;28;20045;-69
2023/01/15 00:02:45;;;;;;;11.70;2.25;;;5.70;99.90;;;;;;5011891;28;20092;-68
2023/01/15 00:05:11;;;;;;;8.90;1.92;;;5.70;99.90;;;;;;5011909;28;20078;-68
2023/01/15 00:07:37;;;;;;;11.32;2.67;;;5.70;99.90;;;;;;5010435;28;20038;-68
2023/01/15 00:10:02;;;;;;;18.63;3.38;;;5.70;99.90;;;;;;5010881;28;20044;-68
2023/01/15 00:12:28;;;;;;;16.30;3.22;;;5.70;99.90;;;;;;5011183;28;20034;-68
2023/01/15 00:14:55;;;;;;;13.27;2.45;;;5.70;99.90;;;;;;5007962;28;20038;-69
2023/01/15 00:17:21;;;;;;;13.32;2.53;;;5.70;99.90;;;;;;5010065;28;20104;-69
2023/01/15 00:19:46;;;;;;;10.13;2.10;;;5.70;99.90;;;;;;5009938;28;20037;-69
2023/01/15 00:22:12;;;;;;;15.30;2.78;;;5.70;99.90;;;;;;5008580;28;20033;-69
2023/01/15 00:27:40;;;;;;;16.75;3.10;;;5.70;99.90;;;;;;5000236;28;20138;-69
2023/01/15 00:30:09;;;;;;;15.93;2.95;;;5.70;99.90;;;;;;5009932;28;20072;-69
2023/01/15 00:32:34;;;;;;;11.05;2.72;;;5.70;99.90;;;;;;5010189;28;20038;-70
2023/01/15 00:35:00;;;;;;;17.50;3.25;;;5.70;99.90;;;;;;5010729;28;20041;-67
2023/01/15 00:37:26;;;;;;;18.90;3.42;;;5.70;99.90;;;;;;5011387;28;20455;-68
2023/01/15 00:39:52;;;;;;;16.25;2.97;;;5.80;99.90;;;;;;5009032;28;20034;-69
2023/01/15 00:42:17;;;;;;;14.55;2.15;;;5.70;99.90;;;;;;5010710;28;20038;-69
2023/01/15 00:44:43;;;;;;;16.52;2.60;;;5.80;99.90;;;;;;5010157;28;20042;-68
2023/01/15 00:47:13;;;;;;;17.85;3.63;;;5.60;99.90;;;;;;5008755;28;20370;-68
2023/01/15 00:49:39;;;;;;;15.18;3.15;;;5.70;99.90;;;;;;5008340;28;20085;-69
2023/01/15 00:52:05;;;;;;;18.67;3.05;;;5.70;99.90;;;;;;5012078;28;20077;-69
2023/01/15 00:54:32;;;;;;;17.27;2.42;;;5.60;99.90;;;;;;5009015;28;20082;-68
2023/01/15 00:56:58;;;;;;;19.13;2.75;;;5.70;99.90;;;;;;5010059;28;20084;-68
2023/01/15 00:59:23;;;;;;;19.65;3.42;;;5.60;99.90;;;;;;5010295;28;20085;-68
2023/01/15 01:01:49;;;;;;;12.80;2.50;;;5.60;99.90;;;;;;5009891;28;20074;-68
2023/01/15 01:04:15;;;;;;;18.25;3.50;;;5.60;99.90;;;;;;5006670;28;20549;-69
2023/01/15 01:06:41;;;;;;;13.45;3.08;;;5.60;99.90;;;;;;5006764;28;20511;-69
2023/01/15 01:09:07;;;;;;;13.88;3.13;;;5.70;99.90;;;;;;5007918;28;20065;-69
2023/01/15 01:11:33;;;;;;;16.10;3.08;;;5.70;99.90;;;;;;5010211;28;20042;-69
2023/01/15 01:14:02;;;;;;;17.48;2.53;;;5.70;99.90;;;;;;5007324;28;20046;-69
2023/01/15 01:16:36;;;;;;;18.42;3.38;;;5.70;99.90;;;;;;5009668;28;20061;-69
2023/01/15 01:19:07;;;;;;;17.25;2.30;;;5.70;99.90;;;;;;5011618;28;20046;-69
2023/01/15 01:21:34;;;;;;;11.25;3.03;;;5.60;99.90;;;;;;5008836;28;20065;-69
2023/01/15 01:24:00;;;;;;;18.95;3.13;;;5.60;99.90;;;;;;5011349;28;20042;-69
2023/01/15 01:26:29;;;;;;;14.48;2.78;;;5.60;99.90;;;;;;5011055;28;20121;-69
2023/01/15 01:28:56;;;;;;;15.93;2.88;;;5.70;99.90;;;;;;5010576;28;20053;-69
2023/01/15 01:31:23;;;;;;;17.75;3.08;;;5.60;99.90;;;;;;5012485;28;20050;-69
2023/01/15 01:33:50;;;;;;;18.27;3.00;;;5.60;99.90;;;;;;5014114;28;20053;-69
2023/01/15 01:36:16;;;;;;;14.40;3.03;;;5.60;99.90;;;;;;5015100;28;20049;-69
2023/01/15 01:38:42;;;;;;;10.45;2.15;;;5.50;99.90;;;;;;5015431;28;20046;-69
2023/01/15 01:41:07;;;;;;;18.92;3.10;;;5.60;99.90;;;;;;5011927;28;20049;-69
2023/01/15 01:43:58;;;;;;;13.35;2.33;;;5.60;99.90;;;;;;5011021;28;20133;-69
2023/01/15 01:46:25;;;;;;;18.02;2.85;;;5.60;99.90;;;;;;5009788;28;20038;-69
2023/01/15 01:48:54;;;;;;;11.38;2.78;;;5.60;99.90;;;;;;5013862;28;20129;-68
2023/01/15 01:51:22;;;;;;;23.70;3.10;;;5.50;99.90;;;;;;5012648;28;20162;-69
2023/01/15 01:53:48;;;;;;;;;;;5.50;99.90;;;;;;5013677;28;20042;-68
2023/01/15 01:56:16;;;;;;;18.55;2.78;;;5.50;99.90;;;;;;5013874;28;20290;-69
2023/01/15 01:58:44;;;;;;;10.02;3.03;;;5.50;99.90;;;;;;5014895;28;20045;-69
2023/01/15 02:01:10;;;;;;;17.88;3.10;;;5.60;99.90;;;;;;5010447;28;20054;-69
2023/01/15 02:03:37;;;;;;;20.02;3.95;;;5.60;99.90;;;;;;5011581;28;20033;-68
2023/01/15 02:06:07;;;;;;;12.88;2.50;;;5.60;99.90;;;;;;5010518;28;20062;-68
2023/01/15 02:08:33;;;;;;;17.90;2.53;;;5.60;99.90;;;;;;5007086;28;20054;-68
2023/01/15 02:11:00;;;;;;;17.35;3.35;;;5.60;99.90;;;;;;5013347;28;20038;-68
2023/01/15 02:13:49;;;;;;;14.52;3.03;;;5.60;99.90;;;;;;5014390;28;20042;-68
2023/01/15 02:16:20;;;;;;;19.67;2.85;;;5.60;99.90;;;;;;5011322;28;20048;-68
2023/01/15 02:19:09;;;;;;;14.20;3.22;;;5.50;99.90;;;;;;5014083;28;20054;-68
2023/01/15 02:21:55;;;;;;;13.98;2.90;;;5.50;99.90;;;;;;5027168;28;20132;-68
2023/01/15 02:24:58;;;;;;;25.27;3.42;;;5.50;99.90;;;;;;5010233;28;20455;-68
2023/01/15 02:27:25;;;;;;;15.88;3.28;;;5.50;99.90;;;;;;5006545;28;20042;-68
2023/01/15 02:30:11;;;;;;;17.38;2.53;;;5.50;99.90;;;;;;5011699;28;20125;-69
2023/01/15 02:32:44;;;;;;;16.23;2.72;;;5.60;99.90;;;;;;5012382;28;20057;-68
2023/01/15 02:35:28;;;;;;;16.67;2.97;;;5.50;99.90;;;;;;5012068;28;20165;-68
2023/01/15 02:37:59;;;;;;;14.85;2.75;;;5.60;99.90;;;;;;5005068;28;20092;-68
2023/01/15 02:40:27;;;;;;;11.13;2.42;;;5.60;99.90;;;;;;5011968;28;20152;-69
2023/01/15 02:42:54;;;;;;;21.10;2.95;;;5.60;99.90;;;;;;5008067;28;20042;-69
2023/01/15 02:45:27;;;;;;;22.25;3.67;;;5.60;99.90;;;;;;5011325;28;20100;-69
2023/01/15 02:47:59;;;;;;;19.70;2.83;;;5.60;99.90;;;;;;5024641;28;20125;-69
2023/01/15 02:50:29;;;;;;;18.73;3.20;;;5.60;99.90;;;;;;5011550;28;20038;-69
2023/01/15 02:52:59;;;;;;;19.17;3.10;;;5.60;99.90;;;;;;5011773;28;20094;-69
2023/01/15 02:55:29;;;;;;;19.50;2.90;;;5.50;99.90;;;;;;5011926;28;20046;-69
2023/01/15 02:58:00;;;;;;;17.05;2.75;;;5.60;99.90;;;;;;5010341;28;20156;-69
2023/01/15 03:00:29;;;;;;;18.08;3.67;;;5.60;99.90;;;;;;5006380;28;20042;-68
2023/01/15 03:03:04;;;;;;;14.15;3.20;;;5.50;99.90;;;;;;5010902;28;20041;-68
2023/01/15 03:05:47;;;;;;;16.15;2.72;;;5.50;99.90;;;;;;5011501;28;20483;-68
2023/01/15 03:08:13;;;;;;;20.20;2.92;;;5.50;99.90;;;;;;5008768;28;20054;-68
2023/01/15 03:10:46;;;;;;;15.73;3.08;;;5.40;99.90;;;;;;5010209;28;20503;-68
2023/01/15 03:13:18;;;;;;;17.17;3.47;;;5.40;99.90;;;;;;4998140;28;20046;-69
2023/01/15 03:16:34;;;;;;;18.70;2.95;;;5.50;99.90;;;;;;4998918;28;20107;-68
2023/01/15 03:19:31;;;;;;;24.08;3.13;;;5.50;99.90;;;;;;4997233;28;20459;-68
2023/01/15 03:22:01;;;;;;;16.10;3.13;;;5.50;99.90;;;;;;4991367;28;20080;-68
2023/01/15 03:24:52;;;;;;;20.13;3.00;;;5.50;99.90;;;;;;5012603;28;20092;-68
2023/01/15 03:27:18;;;;;;;14.07;2.90;;;5.60;99.90;;;;;;5001343;28;20061;-68
2023/01/15 03:29:47;;;;;;;18.73;3.28;;;5.60;99.90;;;;;;5008419;28;20053;-68
2023/01/15 03:32:16;;;;;;;16.98;3.08;;;5.60;99.90;;;;;;5009506;28;20550;-68
2023/01/15 03:34:47;;;;;;;17.63;3.47;;;5.60;99.90;;;;;;5010720;28;20050;-68
2023/01/15 03:37:13;;;;;;;10.45;2.70;;;5.60;99.90;;;;;;5009529;28;20046;-68
2023/01/15 03:39:40;;;;;;;15.63;2.92;;;5.60;99.90;;;;;;5010289;28;20041;-68
2023/01/15 03:42:20;;;;;;;20.23;3.17;;;5.60;99.90;;;;;;5010786;28;20045;-67
2023/01/15 03:45:31;;;;;;;20.67;3.47;;;5.50;99.90;;;;;;5005623;28;20115;-68
2023/01/15 03:48:27;;;;;;;14.50;3.08;;;5.50;99.90;;;;;;5004484;28;20041;-69
2023/01/15 03:51:21;;;;;;;14.60;2.65;;;5.50;99.90;;;;;;5007552;28;20045;-68
2023/01/15 03:53:56;;;;;;;13.18;2.50;;;5.60;99.90;;;;;;5008614;28;20073;-68
2023/01/15 03:56:35;;;;;;;16.55;2.78;;;5.50;99.90;;;;;;5004085;28;20054;-68
2023/01/15 03:59:07;;;;;;;;;;;5.50;99.90;;;;;;5012608;28;20050;-68
2023/01/15 04:01:37;;;;;;;24.15;3.38;;;5.60;99.90;;;;;;5011044;28;20367;-69
2023/01/15 04:04:04;;;;;;;23.75;3.03;;;5.50;99.90;;;;;;5013345;28;20046;-68
2023/01/15 04:06:33;;;;;;;15.52;2.58;;;5.50;99.90;;;;;;5012534;28;20057;-68
2023/01/15 04:08:59;;;;;;;21.02;3.05;;;5.40;99.90;;;;;;5013203;28;20053;-68
2023/01/15 04:11:25;;;;;;;14.18;2.60;;;5.50;99.90;;;;;;5005194;28;20034;-68
2023/01/15 04:13:51;;;;;;;20.95;3.00;;;5.50;99.90;;;;;;5012992;28;20092;-68
2023/01/15 04:16:24;;;;;;;15.23;3.25;;;5.40;99.90;;;;;;5010239;28;20062;-68
2023/01/15 04:18:51;;;;;;;14.95;2.80;;;5.40;99.90;;;;;;5010536;28;20053;-68
2023/01/15 04:21:16;;;;;;;18.42;2.65;;;5.40;99.90;;;;;;5008708;28;20042;-68
2023/01/15 04:23:42;;;;;;;16.10;3.53;;;5.40;99.90;;;;;;5008692;28;20049;-68
2023/01/15 04:26:07;;;;;;;17.40;2.90;;;5.30;99.90;;;;;;5008328;28;20042;-68
2023/01/15 04:28:33;;;;;;;20.65;3.15;;;5.40;99.90;;;;;;5011081;28;20056;-68
2023/01/15 04:30:59;;;;;;;22.50;2.90;;;5.30;99.90;;;;;;5009882;28;20119;-68
2023/01/15 04:33:25;;;;;;;26.70;3.05;;;5.30;99.90;;;;;;5009024;28;20058;-68
2023/01/15 04:35:51;;;;;;;14.73;2.85;;;5.30;99.90;;;;;;5011572;28;20052;-68
2023/01/15 04:38:19;;;;;;;17.42;3.33;;;5.30;99.90;;;;;;4999171;28;20125;-68
2023/01/15 04:46:14;;;;;;;17.80;2.67;;;5.20;99.90;;;;;;5002917;28;20058;-68
2023/01/15 04:48:39;;;;;;;14.80;2.70;;;5.30;99.90;;;;;;5009987;28;20384;-68
2023/01/15 04:51:06;;;;;;;15.50;2.67;;;5.20;99.90;;;;;;5011839;28;20407;-68
2023/01/15 04:53:32;;;;;;;19.33;2.72;;;5.20;99.90;;;;;;5001219;28;20432;-68
2023/01/15 04:56:03;;;;;;;15.07;2.85;;;5.20;99.90;;;;;;5007554;28;20065;-68
2023/01/15 04:58:29;;;;;;;14.32;3.45;;;5.30;99.90;;;;;;5007148;28;20203;-68
2023/01/15 05:00:55;;;;;;;14.27;3.25;;;5.20;99.90;;;;;;5003715;28;20515;-68
2023/01/15 05:03:21;;;;;;;20.15;3.03;;;5.20;99.90;;;;;;5009598;28;20056;-68
2023/01/15 05:05:46;;;;;;;16.33;2.80;;;5.20;99.90;;;;;;5014517;28;20113;-68
2023/01/15 05:08:12;;;;;;;20.30;3.60;;;5.10;99.90;;;;;;5027049;28;20076;-68
2023/01/15 05:10:38;;;;;;;15.55;2.42;;;5.10;99.90;;;;;;5008002;28;20062;-69
2023/01/15 05:13:03;;;;;;;22.75;3.03;;;5.10;99.90;;;;;;5009861;28;20465;-68
2023/01/15 05:15:29;;;;;;;17.42;2.58;;;5.10;99.90;;;;;;5014334;28;20099;-68
2023/01/15 05:17:55;;;;;;;18.88;2.80;;;5.10;99.90;;;;;;5009783;28;20045;-68
2023/01/15 05:20:21;;;;;;;9.38;2.20;;;5.10;99.90;;;;;;5010155;28;20030;-68
2023/01/15 05:22:46;;;;;;;16.45;2.65;;;5.00;99.90;;;;;;5010268;28;20072;-68
2023/01/15 05:25:12;;;;;;;22.65;3.35;;;5.00;99.90;;;;;;5014277;28;20044;-67
2023/01/15 05:27:38;;;;;;;13.98;2.58;;;5.00;99.90;;;;;;5017416;28;20093;-67
2023/01/15 05:30:04;;;;;;;18.42;2.88;;;5.00;99.90;;;;;;5021593;28;20061;-68
2023/01/15 05:32:30;;;;;;;15.93;2.88;;;5.00;99.90;;;;;;5009317;28;20145;-68
2023/01/15 05:34:55;;;;;;;18.52;2.95;;;5.00;99.90;;;;;;5011541;28;20121;-68
2023/01/15 05:37:21;;;;;;;25.60;3.05;;;4.90;99.90;;;;;;5011446;28;20029;-68
2023/01/15 05:39:46;;;;;;;16.23;2.90;;;4.90;99.90;;;;;;5009637;28;20046;-68
2023/01/15 05:42:12;;;;;;;26.10;3.30;;;4.90;99.90;;;;;;5012321;28;20034;-68
2023/01/15 05:44:38;;;;;;;18.13;2.53;;;4.90;99.90;;;;;;4995448;28;20116;-68
2023/01/15 05:47:04;;;;;;;17.08;2.40;;;4.90;99.90;;;;;;5009568;28;20048;-68
2023/01/15 05:49:30;;;;;;;14.75;3.33;;;4.80;99.90;;;;;;5014229;28;20080;-68
2023/01/15 05:51:59;;;;;;;19.00;3.35;;;4.80;99.90;;;;;;5014565;28;20042;-68
2023/01/15 05:54:28;;;;;;;;;;;4.80;99.90;;;;;;5014647;28;20053;-68
2023/01/15 05:56:55;;;;;;;13.27;2.20;;;4.80;99.90;;;;;;5013477;28;20290;-68
2023/01/15 05:59:24;;;;;;;21.63;2.75;;;4.70;99.90;;;;;;5016088;28;20407;-68
2023/01/15 06:01:50;;;;;;;17.38;2.35;;;4.70;99.90;;;;;;5013251;28;20053;-68
2023/01/15 06:04:19;;;;;;;21.17;3.42;;;4.70;99.90;;;;;;5013088;28;20059;-68
2023/01/15 06:06:47;;;;;;;12.13;1.90;;;4.60;99.90;;;;;;4996838;28;20054;-68
2023/01/15 06:09:13;;;;;;;13.85;2.35;;;4.70;99.90;;;;;;5013472;28;20073;-68
2023/01/15 06:11:39;;;;;;;18.58;2.95;;;4.70;99.90;;;;;;5013814;28;20077;-68
2023/01/15 06:14:05;;;;;;;15.45;2.58;;;4.70;99.90;;;;;;5012182;28;20075;-67
2023/01/15 06:16:32;;;;;;;15.07;2.28;;;4.70;99.90;;;;;;5014370;28;20041;-67
2023/01/15 06:19:05;;;;;;;16.40;2.95;;;4.60;99.90;;;;;;5012300;28;20080;-67
2023/01/15 06:21:32;;;;;;;23.67;3.60;;;4.60;99.90;;;;;;5015830;28;20052;-67
2023/01/15 06:23:58;;;;;;;16.90;2.70;;;4.60;99.90;;;;;;5013946;28;20068;-67
2023/01/15 06:26:24;;;;;;;12.63;3.10;;;4.60;99.90;;;;;;5014911;28;20065;-67
2023/01/15 06:28:50;;;;;;;14.40;2.50;;;4.60;99.90;;;;;;5002343;28;20043;-67
2023/01/15 06:31:18;;;;;;;12.65;2.70;;;4.50;99.90;;;;;;5010979;28;20169;-67
2023/01/15 06:33:44;;;;;;;11.50;2.28;;;4.40;99.90;;;;;;5014006;28;20077;-67
2023/01/15 06:36:12;;;;;;;17.60;2.75;;;4.50;99.90;;;;;;5016183;28;20348;-68
2023/01/15 06:38:39;;;;;;;15.82;2.40;;;4.50;99.90;;;;;;5015016;28;20034;-67
2023/01/15 06:47:19;;;;;;;10.80;2.20;;;4.70;99.90;;;;;;5013104;28;20057;-67
2023/01/15 06:49:30;;;;;;;15.43;2.58;;;4.50;99.90;;;;;;5011388;28;20545;-67
2023/01/15 06:51:56;;;;;;;13.55;2.47;;;4.50;99.90;;;;;;5011037;28;20046;-68
2023/01/15 06:54:21;;;;;;;15.25;2.42;;;4.40;99.90;;;;;;5009404;28;20038;-68
2023/01/15 06:56:47;;;;;;;12.85;3.78;;;4.40;99.90;;;;;;5008034;28;20600;-68
2023/01/15 06:59:13;;;;;;;12.60;2.15;;;4.40;99.90;;;;;;5009822;28;20042;-68
2023/01/15 07:01:38;;;;;;;18.13;2.58;;;4.40;99.90;;;;;;5008217;28;20042;-67
2023/01/15 07:04:04;;;;;;;10.43;2.15;;;4.50;99.90;;;;;;5008082;28;20042;-68
2023/01/15 07:06:30;;;;;;;22.17;3.60;;;4.50;99.90;;;;;;5008529;28;20085;-67
2023/01/15 07:08:56;;;;;;;12.35;2.47;;;4.50;99.90;;;;;;5009832;28;20507;-67
2023/01/15 07:11:22;;;;;;;17.95;3.05;;;4.50;99.90;;;;;;5011808;28;20038;-68
2023/01/15 07:13:48;;;;;;;9.88;2.50;;;4.50;99.90;;;;;;5010202;28;20038;-67
2023/01/15 07:16:29;;;;;;;13.85;2.25;;;4.50;99.90;;;;;;5011127;28;20426;-67
2023/01/15 07:18:55;;;;;;;16.15;2.50;;;4.40;99.90;;;;;;5009968;28;20038;-68
2023/01/15 07:21:21;;;;;;;10.45;2.15;;;4.40;99.90;;;;;;5011168;28;20391;-68
2023/01/15 07:23:47;;;;;;;17.50;3.03;;;4.40;99.90;;;;;;5010895;28;20060;-67
2023/01/15 07:26:13;;;;;;;21.20;2.83;;;4.40;99.90;;;;;;5006411;28;20046;-68
2023/01/15 07:28:39;;;;;;;18.42;2.80;;;4.40;99.90;;;;;;5010985;28;20046;-68
2023/01/15 07:31:05;;;;;;;17.83;3.47;;;4.40;99.90;;;;;;5007400;28;20398;-68
2023/01/15 07:33:31;;;;;;;15.68;2.70;;;4.40;99.90;;;;;;4993313;28;20136;-67
2023/01/15 07:35:56;;;;;;;16.17;2.75;;;4.40;99.90;;;;;;5008876;28;20399;-69
2023/01/15 07:38:22;;;;;;;9.90;1.95;;;4.40;99.90;;;;;;5008218;28;20040;-69
2023/01/15 07:49:44;;;;;;;13.25;2.58;;;4.50;99.90;;;;;;5007352;28;21205;-67
2023/01/15 07:51:48;;;;;;;13.15;2.70;;;4.50;99.90;;;;;;5009115;28;20129;-69
2023/01/15 07:54:13;;;;;;;13.18;2.92;;;4.50;99.90;;;;;;5010258;28;20546;-69
2023/01/15 07:56:39;;;;;;;6.55;1.85;;;4.50;99.90;;;;;;5010621;28;20042;-68
2023/01/15 07:59:05;;;;;;;10.15;2.05;;;4.50;99.90;;;;;;5010462;28;20041;-68
2023/01/15 08:01:30;;;;;;;15.68;2.38;;;4.50;99.90;;;;;;5011701;28;20107;-68
2023/01/15 08:03:56;;;;;;;13.13;2.30;;;4.50;99.90;;;;;;5011438;28;20656;-67
2023/01/15 08:06:22;;;;;;;15.35;2.60;;;4.50;99.90;;;;;;5011833;28;20054;-68
2023/01/15 08:08:47;;;;;;;8.25;2.10;;;4.50;99.90;;;;;;5010760;28;20125;-69
2023/01/15 08:16:41;;;;;;;11.68;2.83;;;4.60;99.90;;;;;;5009480;28;20398;-68
2023/01/15 08:19:07;;;;;;;8.95;2.22;;;4.70;99.90;;;;;;5007168;28;20137;-69
2023/01/15 08:21:32;;;;;;;16.17;2.50;;;4.70;99.90;;;;;;5009451;28;20034;-69
2023/01/15 08:23:58;;;;;;;13.35;2.50;;;4.70;99.90;;;;;;5010227;28;20100;-69
2023/01/15 08:26:24;;;;;;;12.18;2.80;;;4.80;99.90;;;;;;5005114;28;20099;-68
2023/01/15 08:28:49;;;;;;;12.80;1.73;;;4.80;99.90;;;;;;5011355;28;20346;-68
2023/01/15 08:31:15;;;;;;;13.95;2.63;;;4.80;99.90;;;;;;5003809;28;20590;-69
2023/01/15 08:33:41;;;;;;;18.85;2.40;;;4.90;99.90;;;;;;5007751;28;20069;-68
2023/01/15 08:36:07;;;;;;;13.75;2.40;;;4.90;99.90;;;;;;5008346;28;20042;-69
2023/01/15 08:38:33;;;;;;;15.32;2.17;;;4.90;99.90;;;;;;5005902;28;20105;-68
2023/01/15 08:40:59;;;;;;;14.25;3.10;;;4.80;99.90;;;;;;5008278;28;20054;-68
2023/01/15 08:43:29;;;;;;;13.77;2.38;;;4.90;99.90;;;;;;5009686;28;20048;-68
2023/01/15 08:46:00;;;;;;;15.27;2.83;;;4.90;99.90;;;;;;5000141;28;20046;-68
2023/01/15 08:48:27;;;;;;;13.40;2.97;;;4.80;99.90;;;;;;5009550;28;20048;-69
2023/01/15 08:50:53;;;;;;;9.15;2.10;;;4.90;99.90;;;;;;5006626;28;20112;-69
2023/01/15 08:53:19;;;;;;;17.60;2.45;;;4.90;99.90;;;;;;5011177;28;20465;-68
2023/01/15 08:55:48;;;;;;;10.55;2.00;;;4.90;99.90;;;;;;5010119;28;20512;-69
2023/01/15 08:58:14;;;;;;;11.85;2.50;;;4.90;99.90;;;;;;5008801;28;20439;-69
2023/01/15 09:00:40;;;;;;;11.38;2.10;;;4.90;99.90;;;;;;5009940;28;20128;-70
2023/01/15 09:03:06;;;;;;;8.98;2.10;;;4.80;99.90;;;;;;5007058;28;20130;-69
2023/01/15 09:05:31;;;;;;;12.80;2.25;;;4.70;99.90;;;;;;5000995;28;20399;-70
2023/01/15 09:07:57;;;;;;;16.50;2.13;;;4.60;99.90;;;;;;5009256;28;20042;-69
2023/01/15 09:10:23;;;;;;;11.30;1.92;;;4.40;99.90;;;;;;5008189;28;20180;-69
2023/01/15 09:12:48;;;;;;;14.00;2.25;;;4.30;99.90;;;;;;5009555;28;20050;-69
2023/01/15 09:15:15;;;;;;;10.50;2.47;;;4.40;99.90;;;;;;5008480;28;20042;-69
2023/01/15 09:17:41;;;;;;;13.98;2.30;;;4.20;99.90;;;;;;5007127;28;20096;-69
2023/01/15 09:20:09;;;;;;;8.65;1.95;;;4.20;99.90;;;;;;5007495;28;20045;-69
2023/01/15 09:22:35;;;;;;;;;;;4.30;99.90;;;;;;4990313;28;20626;-68
2023/01/15 09:25:00;;;;;;;18.27;2.75;;;4.30;99.90;;;;;;5000926;28;19988;-68
2023/01/15 09:27:29;;;;;;;13.52;2.22;;;4.40;99.90;;;;;;5006377;28;20038;-68
2023/01/15 09:29:55;;;;;;;10.55;2.58;;;4.50;99.90;;;;;;5007063;28;20042;-69
2023/01/15 09:32:21;;;;;;;15.95;1.98;;;4.50;99.90;;;;;;5012183;28;20093;-69
2023/01/15 09:34:47;;;;;;;24.20;3.53;;;4.50;99.90;;;;;;5009908;28;20049;-69
2023/01/15 09:37:12;;;;;;;11.82;2.20;;;4.60;99.90;;;;;;4994104;28;20073;-69
2023/01/15 09:39:38;;;;;;;18.77;2.90;;;4.60;99.90;;;;;;5010274;28;20495;-70
2023/01/15 09:42:22;;;;;;;19.92;2.72;;;4.70;99.90;;;;;;5011081;28;20084;-69
2023/01/15 09:45:19;;;;;;;15.25;2.25;;;4.80;99.90;;;;;;5012033;28;20045;-70
2023/01/15 09:48:03;;;;;;;19.83;3.25;;;4.80;99.90;;;;;;5009972;28;20044;-69
2023/01/15 09:50:43;;;;;;;11.00;2.10;;;4.80;99.90;;;;;;5011082;28;20049;-69
2023/01/15 09:53:33;;;;;;;8.85;1.90;;;4.90;99.90;;;;;;5015025;28;20510;-68
2023/01/15 09:56:01;;;;;;;12.32;1.95;;;5.10;99.90;;;;;;5014416;28;20352;-69
2023/01/15 09:58:33;;;;;;;17.77;3.05;;;5.40;99.90;;;;;;5014379;28;20403;-69
2023/01/15 10:00:58;;;;;;;13.35;2.10;;;5.60;99.90;;;;;;5013113;28;20053;-69
2023/01/15 10:03:39;;;;;;;10.68;1.98;;;5.80;99.90;;;;;;5014591;28;20042;-68
2023/01/15 10:06:11;;;;;;;14.88;1.98;;;5.90;99.90;;;;;;5009137;28;20061;-69
2023/01/15 10:08:43;;;;;;;19.27;3.05;;;6.10;99.90;;;;;;5008935;28;20893;-69
2023/01/15 10:11:14;;;;;;;14.38;3.17;;;6.20;99.90;;;;;;4992375;28;20050;-69
2023/01/15 10:13:51;;;;;;;11.30;3.05;;;6.20;99.90;;;;;;5015193;28;20104;-68
2023/01/15 10:16:28;;;;;;;12.93;2.80;;;6.20;99.90;;;;;;5009913;28;20041;-68
2023/01/15 10:18:57;;;;;;;14.32;2.33;;;6.30;99.90;;;;;;4991893;28;20544;-69
2023/01/15 10:21:41;;;;;;;20.95;2.83;;;6.40;99.90;;;;;;4992194;28;20048;-70
2023/01/15 10:24:34;;;;;;;12.10;2.50;;;6.50;99.90;;;;;;5008918;28;20042;-69
2023/01/15 10:27:18;;;;;;;9.90;2.25;;;6.50;99.90;;;;;;5015700;28;20045;-69
2023/01/15 10:30:14;;;;;;;17.05;2.30;;;6.40;99.90;;;;;;5010531;28;20461;-68
2023/01/15 10:32:48;;;;;;;14.07;2.60;;;6.40;99.90;;;;;;5009131;28;20487;-68
2023/01/15 10:35:29;;;;;;;11.52;2.20;;;6.50;99.90;;;;;;5013375;28;20049;-68
2023/01/15 10:38:17;;;;;;;12.10;2.10;;;6.60;99.90;;;;;;5012006;28;20042;-69
2023/01/15 10:40:57;;;;;;;16.70;3.08;;;6.70;99.90;;;;;;5017821;28;20042;-69
2023/01/15 10:43:38;;;;;;;19.55;3.50;;;6.80;99.90;;;;;;5011202;28;20046;-68
2023/01/15 10:46:12;;;;;;;17.85;2.28;;;6.90;99.90;;;;;;5012149;28;20061;-68
2023/01/15 10:48:56;;;;;;;14.25;2.40;;;6.80;99.90;;;;;;5002603;28;20522;-68
2023/01/15 10:52:03;;;;;;;11.77;2.97;;;6.70;99.90;;;;;;5005898;28;20666;-68
2023/01/15 10:54:39;;;;;;;17.45;3.10;;;6.70;99.90;;;;;;5005730;28;20502;-68
2023/01/15 10:57:26;;;;;;;14.02;2.50;;;6.80;99.90;;;;;;5009687;28;20125;-69
2023/01/15 11:00:02;;;;;;;13.23;3.00;;;6.70;99.90;;;;;;5007388;28;20038;-68
2023/01/15 11:02:38;;;;;;;15.75;2.63;;;6.70;99.90;;;;;;5009982;28;20073;-69
2023/01/15 11:05:08;;;;;;;17.30;3.22;;;6.70;99.90;;;;;;5015061;28;20061;-69
2023/01/15 11:07:45;;;;;;;11.13;2.65;;;6.80;99.90;;;;;;5015919;28;20053;-69
2023/01/15 11:10:16;;;;;;;14.75;2.55;;;6.80;99.90;;;;;;5008706;28;20152;-68
2023/01/15 11:21:22;;;;;;;10.98;2.70;;;7.00;99.90;;;;;;5011832;28;20054;-68
2023/01/15 11:23:48;;;;;;;13.63;2.83;;;7.10;99.90;;;;;;5011451;28;20049;-68
2023/01/15 11:26:29;;;;;;;17.10;3.50;;;7.10;99.90;;;;;;5011095;28;20057;-68
2023/01/15 11:28:55;;;;;;;22.88;2.65;;;7.20;99.90;;;;;;5007339;28;20046;-68
2023/01/15 11:31:21;;;;;;;17.70;2.80;;;7.20;99.90;;;;;;5010136;28;20475;-68
2023/01/15 11:34:02;;;;;;;15.13;2.80;;;7.10;99.90;;;;;;5011835;28;20053;-69
2023/01/15 11:36:29;;;;;;;12.93;2.38;;;7.10;99.90;;;;;;5011827;28;20062;-69
2023/01/15 11:38:55;;;;;;;18.95;2.25;;;7.10;99.90;;;;;;5012961;28;20099;-68
2023/01/15 11:52:44;;;;;;;18.90;3.35;;;6.90;99.90;;;;;;5011431;28;20464;-69
2023/01/15 11:55:13;;;;;;;17.58;2.85;;;6.90;99.90;;;;;;5011708;28;20537;-67
2023/01/15 11:57:39;;;;;;;20.65;2.88;;;6.90;99.90;;;;;;5014739;28;20050;-68
2023/01/15 12:00:06;;;;;;;13.23;2.65;;;6.80;99.90;;;;;;5014771;28;20045;-68
2023/01/15 12:02:42;;;;;;;15.60;2.92;;;6.70;99.90;;;;;;5018337;28;20052;-68
2023/01/15 12:05:24;;;;;;;13.25;2.65;;;6.70;99.90;;;;;;4994925;28;20042;-69
2023/01/15 12:07:54;;;;;;;15.30;2.50;;;6.60;99.90;;;;;;5023013;28;20041;-68
2023/01/15 12:13:50;;;;;;;23.27;3.58;;;6.50;99.90;;;;;;5001095;28;20062;-68
2023/01/15 12:16:28;;;;;;;18.20;3.15;;;6.40;99.90;;;;;;5014092;28;20041;-68
2023/01/15 12:19:08;;;;;;;13.10;2.90;;;6.30;99.90;;;;;;5007071;28;20581;-69
2023/01/15 12:21:45;;;;;;;21.88;3.40;;;6.30;99.90;;;;;;5012893;28;20117;-69
2023/01/15 12:24:23;;;;;;;17.17;2.97;;;6.30;99.90;;;;;;5022228;28;20038;-68
2023/01/15 12:27:08;;;;;;;12.88;2.60;;;6.30;99.90;;;;;;5010535;28;20046;-69
2023/01/15 12:29:47;;;;;;;16.80;3.45;;;6.20;99.90;;;;;;5010035;28;20050;-69
2023/01/15 12:32:14;;;;;;;;;;;6.10;99.90;;;;;;5000255;28;20484;-69
2023/01/15 12:35:27;;;;;;;6.07;1.35;;;5.80;99.90;;;;;;5001000;28;20008;-69
2023/01/15 12:38:03;;;;;;;6.10;1.88;;;5.20;99.90;;;;;;4988594;28;20207;-69
2023/01/15 12:40:51;;;;;;;11.30;1.85;;;4.90;99.90;;;;;;5009465;28;20042;-69
2023/01/15 12:46:29;;;;;;;9.52;1.83;;;4.60;99.90;;;;;;4971600;28;20105;-68
2023/01/15 12:49:15;;;;;;;10.30;1.67;;;4.60;99.90;;;;;;5006854;28;20045;-69
2023/01/15 12:51:53;;;;;;;4.95;1.45;;;4.60;99.90;;;;;;5004797;28;20054;-69
2023/01/15 12:54:30;;;;;;;15.23;1.70;;;4.70;99.90;;;;;;5005340;28;20494;-69
2023/01/15 12:57:13;;;;;;;6.68;1.63;;;4.70;99.90;;;;;;5000916;28;20052;-69
2023/01/15 12:59:47;;;;;;;15.07;1.88;;;4.70;99.90;;;;;;5009731;28;20112;-69
2023/01/15 13:02:37;;;;;;;11.10;2.13;;;4.70;99.90;;;;;;5007512;28;20050;-69
2023/01/15 13:05:21;;;;;;;9.93;2.10;;;4.70;99.90;;;;;;5012065;28;20042;-69
2023/01/15 13:08:15;;;;;;;12.80;2.75;;;4.70;99.90;;;;;;5010977;28;20103;-69
2023/01/15 13:10:42;;;;;;;9.60;1.67;;;4.80;99.90;;;;;;5006383;28;20141;-69
2023/01/15 13:13:17;;;;;;;10.02;1.90;;;4.80;99.90;;;;;;5001581;28;20046;-69
2023/01/15 13:15:59;;;;;;;10.85;1.50;;;4.80;99.90;;;;;;5008588;28;20041;-68
2023/01/15 13:18:35;;;;;;;7.10;2.00;;;4.80;99.90;;;;;;5012302;28;20129;-69
2023/01/15 13:21:11;;;;;;;9.32;2.13;;;4.80;99.90;;;;;;5020881;28;20034;-70
2023/01/15 13:24:00;;;;;;;12.32;1.90;;;4.80;99.90;;;;;;5008404;28;20080;-70
2023/01/15 13:26:41;;;;;;;7.22;1.80;;;4.80;99.90;;;;;;5003244;28;20077;-68
2023/01/15 13:29:15;;;;;;;6.22;1.40;;;4.80;99.90;;;;;;5007483;28;20050;-68
2023/01/15 13:32:05;;;;;;;10.85;3.00;;;4.80;99.90;;;;;;5012248;28;20050;-68
2023/01/15 13:34:40;;;;;;;12.00;1.92;;;4.80;99.90;;;;;;5009290;28;20053;-70
2023/01/15 13:37:48;;;;;;;4.65;1.50;;;4.80;99.90;;;;;;5012672;28;20041;-70
2023/01/15 13:40:34;;;;;;;9.70;1.80;;;4.80;99.90;;;;;;5003639;28;20440;-69
2023/01/15 13:43:01;;;;;;;8.40;1.80;;;4.80;99.90;;;;;;5013300;28;20408;-69
2023/01/15 13:45:35;;;;;;;13.82;1.90;;;4.80;99.90;;;;;;5005126;28;20163;-69
2023/01/15 13:48:22;;;;;;;9.38;1.77;;;4.90;99.90;;;;;;5006193;28;20049;-69
2023/01/15 13:50:56;;;;;;;5.72;1.55;;;4.80;99.90;;;;;;4999673;28;20058;-69
2023/01/15 13:53:27;;;;;;;8.00;1.50;;;4.80;99.90;;;;;;5005627;28;20053;-69
2023/01/15 13:56:01;;;;;;;7.82;1.30;;;4.70;99.90;;;;;;5010741;28;20464;-67
2023/01/15 13:58:29;;;;;;;3.72;1.35;;;4.60;99.90;;;;;;4994539;28;20053;-68
2023/01/15 14:01:07;;;;;;;;;;;4.50;99.90;;;;;;5010976;28;20325;-68
2023/01/15 14:03:36;;;;;;;2.78;1.25;;;4.40;99.90;;;;;;5009141;28;19928;-69
2023/01/15 14:06:08;;;;;;;6.38;1.30;;;4.40;99.90;;;;;;5010862;28;20050;-69